sensor_id;sensor_type;location;lat;lon;timestamp;pressure;altitude;pressure_sealevel;temperature;humidity
37298;BME280;30517;51.932;4.278;2022-12-18T00:00:14;102768.84;;;0.03;71.64
37298;BME280;30517;51.932;4.278;2022-12-18T00:02:55;102770.22;;;-0.02;71.98
37298;BME280;30517;51.932;4.278;2022-12-18T00:05:36;102776.50;;;0.02;71.62
37298;BME280;30517;51.932;4.278;2022-12-18T00:08:20;102798.53;;;-0.05;71.17
37298;BME280;30517;51.932;4.278;2022-12-18T00:11:08;102775.66;;;-0.11;72.05
37298;BME280;30517;51.932;4.278;2022-12-18T00:13:49;102773.91;;;0.02;72.08
37298;BME280;30517;51.932;4.278;2022-12-18T00:16:30;102649.69;;;-0.79;71.85
37298;BME280;30517;51.932;4.278;2022-12-18T00:19:14;102729.56;;;-0.38;72.12
37298;BME280;30517;51.932;4.278;2022-12-18T00:21:55;102758.41;;;-0.22;72.25
37298;BME280;30517;51.932;4.278;2022-12-18T00:24:36;102727.50;;;-0.31;72.13
37298;BME280;30517;51.932;4.278;2022-12-18T00:27:16;102777.78;;;-0.05;71.88
37298;BME280;30517;51.932;4.278;2022-12-18T00:29:57;102767.06;;;-0.10;71.52
37298;BME280;30517;51.932;4.278;2022-12-18T00:32:38;102775.75;;;-0.09;72.33
37298;BME280;30517;51.932;4.278;2022-12-18T00:35:19;102786.56;;;-0.03;71.40
37298;BME280;30517;51.932;4.278;2022-12-18T00:37:59;102770.78;;;-0.06;71.26
37298;BME280;30517;51.932;4.278;2022-12-18T00:40:40;102788.25;;;-0.04;72.18
37298;BME280;30517;51.932;4.278;2022-12-18T00:43:21;102787.22;;;-0.06;71.64
37298;BME280;30517;51.932;4.278;2022-12-18T00:46:02;102730.91;;;-0.32;71.60
37298;BME280;30517;51.932;4.278;2022-12-18T00:48:43;102787.16;;;-0.07;72.21
37298;BME280;30517;51.932;4.278;2022-12-18T00:51:25;102776.00;;;-0.18;71.58
37298;BME280;30517;51.932;4.278;2022-12-18T00:54:07;102796.50;;;-0.09;71.88
37298;BME280;30517;51.932;4.278;2022-12-18T00:56:47;102769.56;;;-0.23;72.07
37298;BME280;30517;51.932;4.278;2022-12-18T00:59:28;102791.53;;;-0.06;71.76
37298;BME280;30517;51.932;4.278;2022-12-18T01:02:10;102797.19;;;-0.12;71.93
37298;BME280;30517;51.932;4.278;2022-12-18T01:04:51;102771.34;;;-0.22;71.70
37298;BME280;30517;51.932;4.278;2022-12-18T01:07:31;102790.31;;;-0.23;72.48
37298;BME280;30517;51.932;4.278;2022-12-18T01:10:12;102753.00;;;-0.37;71.40
37298;BME280;30517;51.932;4.278;2022-12-18T01:12:53;102799.00;;;-0.11;71.65
37298;BME280;30517;51.932;4.278;2022-12-18T01:15:34;102801.34;;;-0.14;71.87
37298;BME280;30517;51.932;4.278;2022-12-18T01:18:15;102797.28;;;-0.22;71.87
37298;BME280;30517;51.932;4.278;2022-12-18T01:20:55;102758.66;;;-0.42;71.93
37298;BME280;30517;51.932;4.278;2022-12-18T01:23:37;102801.34;;;-0.14;71.93
37298;BME280;30517;51.932;4.278;2022-12-18T01:26:18;102743.22;;;-0.53;72.16
37298;BME280;30517;51.932;4.278;2022-12-18T01:28:58;102749.06;;;-0.43;71.87
37298;BME280;30517;51.932;4.278;2022-12-18T01:31:39;102794.25;;;-0.16;72.09
37298;BME280;30517;51.932;4.278;2022-12-18T01:34:20;102775.56;;;-0.24;71.73
37298;BME280;30517;51.932;4.278;2022-12-18T01:37:02;102736.47;;;-0.51;72.03
37298;BME280;30517;51.932;4.278;2022-12-18T01:39:43;102737.69;;;-0.46;71.72
37298;BME280;30517;51.932;4.278;2022-12-18T01:42:24;102796.06;;;-0.15;71.56
37298;BME280;30517;51.932;4.278;2022-12-18T01:45:23;102804.19;;;-0.11;71.52
37298;BME280;30517;51.932;4.278;2022-12-18T01:48:07;102807.78;;;-0.09;71.55
37298;BME280;30517;51.932;4.278;2022-12-18T01:50:48;102815.66;;;-0.19;71.35
37298;BME280;30517;51.932;4.278;2022-12-18T01:53:30;102810.06;;;-0.13;71.47
37298;BME280;30517;51.932;4.278;2022-12-18T01:56:18;102780.44;;;-0.40;71.62
37298;BME280;30517;51.932;4.278;2022-12-18T01:59:04;102811.06;;;-0.23;71.84
37298;BME280;30517;51.932;4.278;2022-12-18T02:01:48;102816.13;;;-0.25;72.21
37298;BME280;30517;51.932;4.278;2022-12-18T02:04:29;102799.00;;;-0.34;72.14
37298;BME280;30517;51.932;4.278;2022-12-18T02:10:38;102800.56;;;-0.25;71.80
37298;BME280;30517;51.932;4.278;2022-12-18T02:13:35;102806.78;;;-0.23;71.68
37298;BME280;30517;51.932;4.278;2022-12-18T02:16:23;102800.56;;;-0.25;71.51
37298;BME280;30517;51.932;4.278;2022-12-18T02:28:11;102785.94;;;-0.48;71.99
37298;BME280;30517;51.932;4.278;2022-12-18T02:30:56;102812.53;;;-0.27;71.75
37298;BME280;30517;51.932;4.278;2022-12-18T02:33:40;102816.81;;;-0.27;71.73
37298;BME280;30517;51.932;4.278;2022-12-18T02:36:24;102798.00;;;-0.36;71.86
37298;BME280;30517;51.932;4.278;2022-12-18T02:39:10;102809.03;;;-0.27;71.71
37298;BME280;30517;51.932;4.278;2022-12-18T02:41:52;102779.19;;;-0.46;71.99
37298;BME280;30517;51.932;4.278;2022-12-18T02:44:45;102795.28;;;-0.26;71.56
37298;BME280;30517;51.932;4.278;2022-12-18T02:47:33;102715.94;;;-0.71;71.49
37298;BME280;30517;51.932;4.278;2022-12-18T02:50:34;102787.50;;;-0.26;71.54
37298;BME280;30517;51.932;4.278;2022-12-18T02:53:37;102758.53;;;-0.44;71.40
37298;BME280;30517;51.932;4.278;2022-12-18T02:56:26;102790.56;;;-0.32;71.23
37298;BME280;30517;51.932;4.278;2022-12-18T02:59:13;102739.06;;;-0.51;71.40
37298;BME280;30517;51.932;4.278;2022-12-18T03:02:07;102760.78;;;-0.37;70.94
37298;BME280;30517;51.932;4.278;2022-12-18T03:04:58;102778.50;;;-0.31;71.31
37298;BME280;30517;51.932;4.278;2022-12-18T03:10:30;102755.69;;;-0.35;71.42
37298;BME280;30517;51.932;4.278;2022-12-18T03:13:16;102755.69;;;-0.35;71.61
37298;BME280;30517;51.932;4.278;2022-12-18T03:16:00;102756.16;;;-0.29;71.17
37298;BME280;30517;51.932;4.278;2022-12-18T03:18:56;102748.72;;;-0.36;70.97
37298;BME280;30517;51.932;4.278;2022-12-18T03:21:58;102714.47;;;-0.56;71.64
37298;BME280;30517;51.932;4.278;2022-12-18T03:24:41;102743.53;;;-0.36;71.30
37298;BME280;30517;51.932;4.278;2022-12-18T03:27:23;102738.34;;;-0.36;71.42
37298;BME280;30517;51.932;4.278;2022-12-18T03:30:08;102703.91;;;-0.59;71.53
37298;BME280;30517;51.932;4.278;2022-12-18T03:33:07;102722.81;;;-0.60;70.99
37298;BME280;30517;51.932;4.278;2022-12-18T03:35:48;102757.31;;;-0.37;71.09
37298;BME280;30517;51.932;4.278;2022-12-18T03:38:29;102757.84;;;-0.41;71.70
37298;BME280;30517;51.932;4.278;2022-12-18T03:41:22;102753.25;;;-0.46;71.58
37298;BME280;30517;51.932;4.278;2022-12-18T03:44:21;102763.41;;;-0.49;71.33
37298;BME280;30517;51.932;4.278;2022-12-18T03:47:13;102761.25;;;-0.42;71.15
37298;BME280;30517;51.932;4.278;2022-12-18T03:50:01;102763.94;;;-0.41;71.16
37298;BME280;30517;51.932;4.278;2022-12-18T03:52:49;102713.34;;;-0.71;71.11
37298;BME280;30517;51.932;4.278;2022-12-18T03:55:33;102753.13;;;-0.47;71.24
37298;BME280;30517;51.932;4.278;2022-12-18T03:58:17;102723.94;;;-0.68;71.41
37298;BME280;30517;51.932;4.278;2022-12-18T04:01:03;102602.09;;;-1.28;71.53
37298;BME280;30517;51.932;4.278;2022-12-18T04:03:47;102728.00;;;-0.60;71.43
37298;BME280;30517;51.932;4.278;2022-12-18T04:06:29;102766.00;;;-0.49;71.59
37298;BME280;30517;51.932;4.278;2022-12-18T04:09:11;102745.47;;;-0.57;70.99
37298;BME280;30517;51.932;4.278;2022-12-18T04:11:53;102757.06;;;-0.52;71.33
37298;BME280;30517;51.932;4.278;2022-12-18T04:14:33;102753.47;;;-0.42;71.50
37298;BME280;30517;51.932;4.278;2022-12-18T04:17:15;102736.34;;;-0.64;71.70
37298;BME280;30517;51.932;4.278;2022-12-18T04:19:56;102756.19;;;-0.53;71.29
37298;BME280;30517;51.932;4.278;2022-12-18T04:22:37;102736.56;;;-0.61;71.14
37298;BME280;30517;51.932;4.278;2022-12-18T04:25:18;102740.88;;;-0.61;71.57
37298;BME280;30517;51.932;4.278;2022-12-18T04:27:58;102706.63;;;-0.81;71.23
37298;BME280;30517;51.932;4.278;2022-12-18T04:30:39;102736.34;;;-0.64;70.90
37298;BME280;30517;51.932;4.278;2022-12-18T04:33:20;102746.13;;;-0.60;71.31
37298;BME280;30517;51.932;4.278;2022-12-18T04:36:01;102741.06;;;-0.58;70.87
37298;BME280;30517;51.932;4.278;2022-12-18T04:38:41;102744.00;;;-0.65;70.82
37298;BME280;30517;51.932;4.278;2022-12-18T04:41:22;102688.81;;;-0.88;71.22
37298;BME280;30517;51.932;4.278;2022-12-18T04:44:03;102668.28;;;-1.08;71.06
37298;BME280;30517;51.932;4.278;2022-12-18T04:46:44;102522.59;;;-1.88;70.82
37298;BME280;30517;51.932;4.278;2022-12-18T04:49:25;102746.47;;;-0.79;70.96
37298;BME280;30517;51.932;4.278;2022-12-18T04:52:06;102742.88;;;-0.69;71.11
37298;BME280;30517;51.932;4.278;2022-12-18T04:54:50;102727.13;;;-0.72;71.29
37298;BME280;30517;51.932;4.278;2022-12-18T04:57:30;102674.56;;;-1.40;71.09
37298;BME280;30517;51.932;4.278;2022-12-18T05:00:12;102758.66;;;-0.66;71.32
37298;BME280;30517;51.932;4.278;2022-12-18T05:02:52;102749.84;;;-0.68;71.54
37298;BME280;30517;51.932;4.278;2022-12-18T05:05:36;102694.75;;;-1.01;71.31
37298;BME280;30517;51.932;4.278;2022-12-18T05:08:18;102745.94;;;-0.75;71.35
37298;BME280;30517;51.932;4.278;2022-12-18T05:11:06;102746.81;;;-0.62;71.14
37298;BME280;30517;51.932;4.278;2022-12-18T05:13:47;102737.25;;;-0.75;71.43
37298;BME280;30517;51.932;4.278;2022-12-18T05:16:28;102710.53;;;-0.98;71.58
37298;BME280;30517;51.932;4.278;2022-12-18T05:19:09;102690.59;;;-0.99;70.77
37298;BME280;30517;51.932;4.278;2022-12-18T05:21:50;102730.69;;;-0.82;71.39
37298;BME280;30517;51.932;4.278;2022-12-18T05:24:30;102730.59;;;-0.72;70.72
37298;BME280;30517;51.932;4.278;2022-12-18T05:27:12;102725.53;;;-0.94;71.22
37298;BME280;30517;51.932;4.278;2022-12-18T05:29:52;102707.94;;;-0.98;71.57
37298;BME280;30517;51.932;4.278;2022-12-18T05:32:33;102714.03;;;-0.85;70.38
37298;BME280;30517;51.932;4.278;2022-12-18T05:35:14;102664.13;;;-1.18;70.83
37298;BME280;30517;51.932;4.278;2022-12-18T05:37:55;102695.34;;;-0.93;70.77
37298;BME280;30517;51.932;4.278;2022-12-18T05:40:36;102736.31;;;-0.76;71.23
37298;BME280;30517;51.932;4.278;2022-12-18T05:43:17;102719.09;;;-0.87;71.02
37298;BME280;30517;51.932;4.278;2022-12-18T05:46:03;102686.31;;;-1.10;71.40
37298;BME280;30517;51.932;4.278;2022-12-18T05:48:45;102728.09;;;-0.82;70.68
37298;BME280;30517;51.932;4.278;2022-12-18T05:51:25;102714.38;;;-0.81;70.54
37298;BME280;30517;51.932;4.278;2022-12-18T05:54:06;102678.19;;;-1.03;71.24
37298;BME280;30517;51.932;4.278;2022-12-18T05:56:47;102730.84;;;-0.80;71.26
37298;BME280;30517;51.932;4.278;2022-12-18T05:59:28;102721.03;;;-0.73;70.99
37298;BME280;30517;51.932;4.278;2022-12-18T06:02:09;102727.53;;;-0.90;70.67
37298;BME280;30517;51.932;4.278;2022-12-18T06:04:49;102723.97;;;-0.92;71.48
37298;BME280;30517;51.932;4.278;2022-12-18T06:07:30;102654.75;;;-1.28;70.72
37298;BME280;30517;51.932;4.278;2022-12-18T06:10:11;102707.84;;;-0.87;71.13
37298;BME280;30517;51.932;4.278;2022-12-18T06:12:52;102684.41;;;-1.01;70.88
37298;BME280;30517;51.932;4.278;2022-12-18T06:15:32;102678.22;;;-0.91;70.74
37298;BME280;30517;51.932;4.278;2022-12-18T06:18:13;102681.56;;;-0.92;70.59
37298;BME280;30517;51.932;4.278;2022-12-18T06:20:58;102693.31;;;-0.85;71.17
37298;BME280;30517;51.932;4.278;2022-12-18T06:23:39;102675.88;;;-1.00;70.86
37298;BME280;30517;51.932;4.278;2022-12-18T06:26:20;102571.09;;;-1.62;71.22
37298;BME280;30517;51.932;4.278;2022-12-18T06:29:01;102688.81;;;-1.00;70.80
37298;BME280;30517;51.932;4.278;2022-12-18T06:31:41;102685.56;;;-0.97;70.91
37298;BME280;30517;51.932;4.278;2022-12-18T06:34:22;102687.22;;;-0.98;71.22
37298;BME280;30517;51.932;4.278;2022-12-18T06:37:03;102616.25;;;-1.47;70.64
37298;BME280;30517;51.932;4.278;2022-12-18T06:39:44;102677.31;;;-1.03;71.22
37298;BME280;30517;51.932;4.278;2022-12-18T06:42:25;102680.25;;;-0.99;70.63
37298;BME280;30517;51.932;4.278;2022-12-18T06:45:06;102631.81;;;-1.23;71.21
37298;BME280;30517;51.932;4.278;2022-12-18T06:47:47;102665.47;;;-1.12;71.10
37298;BME280;30517;51.932;4.278;2022-12-18T06:50:28;102656.50;;;-1.05;71.06
37298;BME280;30517;51.932;4.278;2022-12-18T06:53:09;102605.00;;;-1.36;70.68
37298;BME280;30517;51.932;4.278;2022-12-18T06:55:50;102550.75;;;-1.69;71.54
37298;BME280;30517;51.932;4.278;2022-12-18T06:58:31;102615.16;;;-1.27;71.31
37298;BME280;30517;51.932;4.278;2022-12-18T07:01:12;102646.88;;;-1.06;71.43
37298;BME280;30517;51.932;4.278;2022-12-18T07:03:55;102646.00;;;-1.06;71.39
37298;BME280;30517;51.932;4.278;2022-12-18T07:06:36;102613.09;;;-1.19;70.57
37298;BME280;30517;51.932;4.278;2022-12-18T07:09:20;102582.84;;;-1.32;71.05
37298;BME280;30517;51.932;4.278;2022-12-18T07:12:01;102614.47;;;-1.01;70.80
37298;BME280;30517;51.932;4.278;2022-12-18T07:14:41;102598.25;;;-1.10;71.08
37298;BME280;30517;51.932;4.278;2022-12-18T07:17:22;102594.22;;;-1.18;70.65
37298;BME280;30517;51.932;4.278;2022-12-18T07:20:04;102593.53;;;-1.16;71.28
37298;BME280;30517;51.932;4.278;2022-12-18T07:22:44;102516.66;;;-1.52;71.13
37298;BME280;30517;51.932;4.278;2022-12-18T07:25:25;102553.69;;;-1.29;70.62
37298;BME280;30517;51.932;4.278;2022-12-18T07:28:06;102515.09;;;-1.50;70.42
37298;BME280;30517;51.932;4.278;2022-12-18T07:30:47;102592.28;;;-1.09;70.81
37298;BME280;30517;51.932;4.278;2022-12-18T07:33:28;102584.84;;;-1.28;70.74
37298;BME280;30517;51.932;4.278;2022-12-18T07:36:09;102603.22;;;-1.13;71.36
37298;BME280;30517;51.932;4.278;2022-12-18T07:38:51;102605.47;;;-1.18;71.26
37298;BME280;30517;51.932;4.278;2022-12-18T07:41:33;102572.38;;;-1.34;71.07
37298;BME280;30517;51.932;4.278;2022-12-18T07:44:15;102607.22;;;-1.64;71.24
37298;BME280;30517;51.932;4.278;2022-12-18T07:46:56;102565.69;;;-1.77;70.28
37298;BME280;30517;51.932;4.278;2022-12-18T07:49:37;102583.75;;;-1.31;69.88
37298;BME280;30517;51.932;4.278;2022-12-18T07:52:18;102562.81;;;-1.35;68.93
37298;BME280;30517;51.932;4.278;2022-12-18T07:54:59;102526.00;;;-1.54;68.82
37298;BME280;30517;51.932;4.278;2022-12-18T07:57:39;102547.38;;;-1.45;69.87
37298;BME280;30517;51.932;4.278;2022-12-18T08:00:30;102595.78;;;-1.32;69.31
37298;BME280;30517;51.932;4.278;2022-12-18T08:03:12;102588.81;;;-1.21;69.45
37298;BME280;30517;51.932;4.278;2022-12-18T08:05:58;102466.91;;;-1.95;70.17
37298;BME280;30517;51.932;4.278;2022-12-18T08:08:39;102544.22;;;-1.64;70.71
37298;BME280;30517;51.932;4.278;2022-12-18T08:11:22;102571.13;;;-1.39;70.33
37298;BME280;30517;51.932;4.278;2022-12-18T08:14:03;102525.78;;;-1.69;71.15
37298;BME280;30517;51.932;4.278;2022-12-18T08:16:44;102567.06;;;-1.47;71.40
37298;BME280;30517;51.932;4.278;2022-12-18T08:19:25;102552.00;;;-1.52;70.70
37298;BME280;30517;51.932;4.278;2022-12-18T08:22:06;102551.53;;;-1.59;71.72
37298;BME280;30517;51.932;4.278;2022-12-18T08:24:46;102580.00;;;-1.47;71.14
37298;BME280;30517;51.932;4.278;2022-12-18T08:27:27;102551.19;;;-1.63;71.33
37298;BME280;30517;51.932;4.278;2022-12-18T08:30:09;102582.06;;;-1.43;71.26
37298;BME280;30517;51.932;4.278;2022-12-18T08:32:53;102586.00;;;-1.48;70.19
37298;BME280;30517;51.932;4.278;2022-12-18T08:35:35;102592.88;;;-1.48;71.26
37298;BME280;30517;51.932;4.278;2022-12-18T08:38:16;102589.69;;;-1.56;71.05
37298;BME280;30517;51.932;4.278;2022-12-18T08:41:02;102608.16;;;-1.40;71.31
37298;BME280;30517;51.932;4.278;2022-12-18T08:43:43;102580.69;;;-1.61;71.13
37298;BME280;30517;51.932;4.278;2022-12-18T08:46:43;102619.84;;;-1.45;71.42
37298;BME280;30517;51.932;4.278;2022-12-18T08:49:24;102625.47;;;-1.50;70.62
37298;BME280;30517;51.932;4.278;2022-12-18T08:52:05;102639.09;;;-1.53;70.88
37298;BME280;30517;51.932;4.278;2022-12-18T08:54:46;102622.19;;;-1.60;71.41
37298;BME280;30517;51.932;4.278;2022-12-18T08:57:27;102607.00;;;-1.67;70.87
37298;BME280;30517;51.932;4.278;2022-12-18T09:00:08;102625.03;;;-1.45;70.81
37298;BME280;30517;51.932;4.278;2022-12-18T09:02:49;102576.63;;;-1.58;71.46
37298;BME280;30517;51.932;4.278;2022-12-18T09:05:30;102581.34;;;-1.52;70.51
37298;BME280;30517;51.932;4.278;2022-12-18T09:08:11;102581.34;;;-1.52;71.00
37298;BME280;30517;51.932;4.278;2022-12-18T09:10:54;102527.13;;;-1.86;71.47
37298;BME280;30517;51.932;4.278;2022-12-18T09:13:36;102595.75;;;-1.44;70.75
37298;BME280;30517;51.932;4.278;2022-12-18T09:16:17;102580.00;;;-1.47;70.77
37298;BME280;30517;51.932;4.278;2022-12-18T09:18:59;102556.16;;;-1.54;71.03
37298;BME280;30517;51.932;4.278;2022-12-18T09:21:40;102532.28;;;-1.74;71.58
37298;BME280;30517;51.932;4.278;2022-12-18T09:24:21;102560.56;;;-1.42;70.24
37298;BME280;30517;51.932;4.278;2022-12-18T09:27:02;102570.34;;;-1.49;70.80
37298;BME280;30517;51.932;4.278;2022-12-18T09:29:42;102557.75;;;-1.57;71.35
37298;BME280;30517;51.932;4.278;2022-12-18T09:32:23;102570.56;;;-1.46;70.75
37298;BME280;30517;51.932;4.278;2022-12-18T09:35:04;102567.06;;;-1.59;71.32
37298;BME280;30517;51.932;4.278;2022-12-18T09:37:45;102575.97;;;-1.55;71.06
37298;BME280;30517;51.932;4.278;2022-12-18T09:40:28;102569.00;;;-1.56;70.83
37298;BME280;30517;51.932;4.278;2022-12-18T09:43:28;102560.06;;;-1.60;71.42
37298;BME280;30517;51.932;4.278;2022-12-18T09:46:16;102501.03;;;-1.89;71.15
37298;BME280;30517;51.932;4.278;2022-12-18T09:49:02;102572.34;;;-1.57;71.33
37298;BME280;30517;51.932;4.278;2022-12-18T09:51:47;102434.50;;;-2.37;71.30
37298;BME280;30517;51.932;4.278;2022-12-18T09:54:41;102586.09;;;-1.46;71.30
37298;BME280;30517;51.932;4.278;2022-12-18T09:57:24;102571.81;;;-1.53;71.06
37298;BME280;30517;51.932;4.278;2022-12-18T10:00:16;102569.88;;;-1.56;71.49
37298;BME280;30517;51.932;4.278;2022-12-18T10:03:12;102564.25;;;-1.62;71.61
37298;BME280;30517;51.932;4.278;2022-12-18T10:08:50;102510.69;;;-1.74;71.53
37298;BME280;30517;51.932;4.278;2022-12-18T10:14:55;102526.00;;;-1.66;71.32
37298;BME280;30517;51.932;4.278;2022-12-18T10:17:47;102517.22;;;-1.68;71.85
37298;BME280;30517;51.932;4.278;2022-12-18T10:20:44;102521.25;;;-1.60;71.09
37298;BME280;30517;51.932;4.278;2022-12-18T10:23:32;102525.00;;;-1.44;70.64
37298;BME280;30517;51.932;4.278;2022-12-18T10:26:14;102507.88;;;-1.54;71.22
37298;BME280;30517;51.932;4.278;2022-12-18T10:28:57;102489.09;;;-1.75;70.79
37298;BME280;30517;51.932;4.278;2022-12-18T10:31:38;102434.66;;;-2.00;70.79
37298;BME280;30517;51.932;4.278;2022-12-18T10:34:19;102401.72;;;-2.14;70.81
37298;BME280;30517;51.932;4.278;2022-12-18T10:37:03;102459.38;;;-2.04;71.01
37298;BME280;30517;51.932;4.278;2022-12-18T10:40:11;102492.50;;;-1.64;71.94
37298;BME280;30517;51.932;4.278;2022-12-18T10:43:11;102506.78;;;-1.46;70.93
37298;BME280;30517;51.932;4.278;2022-12-18T10:48:56;102524.63;;;-1.49;71.57
37298;BME280;30517;51.932;4.278;2022-12-18T10:51:38;102524.41;;;-1.52;71.58
37298;BME280;30517;51.932;4.278;2022-12-18T10:54:22;102493.38;;;-1.64;71.01
37298;BME280;30517;51.932;4.278;2022-12-18T10:57:15;102508.91;;;-1.40;70.79
37298;BME280;30517;51.932;4.278;2022-12-18T10:59:58;102502.28;;;-1.48;71.26
37298;BME280;30517;51.932;4.278;2022-12-18T11:02:39;102497.19;;;-1.47;71.40
37298;BME280;30517;51.932;4.278;2022-12-18T11:05:31;102406.56;;;-2.07;71.32
37298;BME280;30517;51.932;4.278;2022-12-18T11:08:20;102495.16;;;-1.39;70.79
37298;BME280;30517;51.932;4.278;2022-12-18T11:11:06;102430.75;;;-1.83;71.19
37298;BME280;30517;51.932;4.278;2022-12-18T11:13:59;102463.88;;;-1.89;71.53
37298;BME280;30517;51.932;4.278;2022-12-18T11:16:46;102535.91;;;-1.48;71.28
37298;BME280;30517;51.932;4.278;2022-12-18T11:19:33;102489.22;;;-1.50;72.19
37298;BME280;30517;51.932;4.278;2022-12-18T11:22:28;102413.09;;;-1.89;71.94
37298;BME280;30517;51.932;4.278;2022-12-18T11:27:59;102452.16;;;-1.49;71.81
37298;BME280;30517;51.932;4.278;2022-12-18T11:30:40;102407.31;;;-1.85;71.85
37298;BME280;30517;51.932;4.278;2022-12-18T11:33:21;102386.75;;;-1.95;71.84
37298;BME280;30517;51.932;4.278;2022-12-18T11:36:04;102427.56;;;-1.67;71.78
37298;BME280;30517;51.932;4.278;2022-12-18T11:38:50;102445.63;;;-1.44;71.16
37298;BME280;30517;51.932;4.278;2022-12-18T11:41:38;102438.34;;;-1.49;72.29
37298;BME280;30517;51.932;4.278;2022-12-18T11:50:47;102424.72;;;-1.47;72.11
37298;BME280;30517;51.932;4.278;2022-12-18T11:53:30;102418.78;;;-1.46;72.51
37298;BME280;30517;51.932;4.278;2022-12-18T11:56:28;102386.69;;;-1.60;71.75
37298;BME280;30517;51.932;4.278;2022-12-18T12:11:15;102217.00;;;-2.67;71.98
37298;BME280;30517;51.932;4.278;2022-12-18T12:14:16;102409.63;;;-1.41;72.77
37298;BME280;30517;51.932;4.278;2022-12-18T12:17:14;102399.19;;;-1.42;72.75
37298;BME280;30517;51.932;4.278;2022-12-18T12:20:20;102392.16;;;-1.31;71.34
37298;BME280;30517;51.932;4.278;2022-12-18T12:23:08;102395.31;;;-1.36;72.43
37298;BME280;30517;51.932;4.278;2022-12-18T12:29:01;102377.88;;;-1.38;72.25
37298;BME280;30517;51.932;4.278;2022-12-18T12:31:47;102384.19;;;-1.35;71.90
37298;BME280;30517;51.932;4.278;2022-12-18T12:34:55;102373.03;;;-1.34;72.25
37298;BME280;30517;51.932;4.278;2022-12-18T12:40:52;102369.34;;;-1.37;72.98
37298;BME280;30517;51.932;4.278;2022-12-18T12:43:44;102363.28;;;-1.38;73.14
37298;BME280;30517;51.932;4.278;2022-12-18T12:46:31;102363.00;;;-1.29;72.86
37298;BME280;30517;51.932;4.278;2022-12-18T12:49:21;102311.44;;;-1.63;72.56
37298;BME280;30517;51.932;4.278;2022-12-18T12:52:12;102364.38;;;-1.34;72.54
37298;BME280;30517;51.932;4.278;2022-12-18T12:54:55;102313.78;;;-1.54;72.51
37298;BME280;30517;51.932;4.278;2022-12-18T12:57:44;102334.88;;;-1.36;72.81
37298;BME280;30517;51.932;4.278;2022-12-18T13:00:29;102333.94;;;-1.25;72.42
37298;BME280;30517;51.932;4.278;2022-12-18T13:06:18;102331.63;;;-1.34;72.72
37298;BME280;30517;51.932;4.278;2022-12-18T13:09:03;102327.66;;;-1.28;72.40
37298;BME280;30517;51.932;4.278;2022-12-18T13:11:50;102257.81;;;-1.65;72.19
37298;BME280;30517;51.932;4.278;2022-12-18T13:14:49;102317.09;;;-1.31;73.35
37298;BME280;30517;51.932;4.278;2022-12-18T13:17:31;102287.19;;;-1.40;72.62
37298;BME280;30517;51.932;4.278;2022-12-18T13:20:13;102269.09;;;-1.51;72.47
37298;BME280;30517;51.932;4.278;2022-12-18T13:22:55;102276.03;;;-1.39;72.69
37298;BME280;30517;51.932;4.278;2022-12-18T13:25:37;102230.97;;;-1.54;72.06
37298;BME280;30517;51.932;4.278;2022-12-18T13:34:25;102253.22;;;-1.44;73.38
37298;BME280;30517;51.932;4.278;2022-12-18T13:43:39;102261.88;;;-1.19;72.16
37298;BME280;30517;51.932;4.278;2022-12-18T13:46:42;102269.91;;;-1.02;71.84
37298;BME280;30517;51.932;4.278;2022-12-18T13:52:25;102259.00;;;-1.10;72.28
37298;BME280;30517;51.932;4.278;2022-12-18T13:55:16;102243.56;;;-1.08;71.93
37298;BME280;30517;51.932;4.278;2022-12-18T13:58:05;102237.41;;;-1.10;72.11
37298;BME280;30517;51.932;4.278;2022-12-18T14:00:46;102238.09;;;-1.13;72.97
37298;BME280;30517;51.932;4.278;2022-12-18T14:03:28;102215.97;;;-1.21;72.69
37298;BME280;30517;51.932;4.278;2022-12-18T14:06:11;102240.06;;;-1.09;72.57
37298;BME280;30517;51.932;4.278;2022-12-18T14:08:53;102109.41;;;-1.79;72.74
37298;BME280;30517;51.932;4.278;2022-12-18T14:11:34;102234.53;;;-1.02;72.69
37298;BME280;30517;51.932;4.278;2022-12-18T14:14:19;102231.09;;;-1.14;72.89
37298;BME280;30517;51.932;4.278;2022-12-18T14:17:00;102169.31;;;-1.48;72.42
37298;BME280;30517;51.932;4.278;2022-12-18T14:19:43;102187.47;;;-1.35;72.95
37298;BME280;30517;51.932;4.278;2022-12-18T14:22:25;102199.03;;;-1.03;72.05
37298;BME280;30517;51.932;4.278;2022-12-18T14:30:44;102189.59;;;-1.02;72.69
37298;BME280;30517;51.932;4.278;2022-12-18T14:33:27;102190.59;;;-1.00;72.32
37298;BME280;30517;51.932;4.278;2022-12-18T14:36:16;102142.34;;;-1.25;72.88
37298;BME280;30517;51.932;4.278;2022-12-18T14:38:59;102149.81;;;-1.16;72.60
37298;BME280;30517;51.932;4.278;2022-12-18T14:41:40;102162.31;;;-1.10;72.42
37298;BME280;30517;51.932;4.278;2022-12-18T14:44:21;102172.38;;;-1.02;73.14
37298;BME280;30517;51.932;4.278;2022-12-18T14:47:02;102153.72;;;-1.09;72.88
37298;BME280;30517;51.932;4.278;2022-12-18T14:49:44;102133.50;;;-1.28;73.27
37298;BME280;30517;51.932;4.278;2022-12-18T14:52:28;102178.13;;;-0.93;72.95
37298;BME280;30517;51.932;4.278;2022-12-18T14:55:19;102160.59;;;-1.10;72.73
37298;BME280;30517;51.932;4.278;2022-12-18T14:58:01;102147.34;;;-1.15;73.33
37298;BME280;30517;51.932;4.278;2022-12-18T15:00:42;102179.53;;;-0.98;73.11
37298;BME280;30517;51.932;4.278;2022-12-18T15:03:23;102177.94;;;-0.96;72.51
37298;BME280;30517;51.932;4.278;2022-12-18T15:06:21;102141.59;;;-1.10;72.65
37298;BME280;30517;51.932;4.278;2022-12-18T15:09:22;102071.84;;;-1.47;72.82
37298;BME280;30517;51.932;4.278;2022-12-18T15:12:04;102136.69;;;-1.19;73.15
37298;BME280;30517;51.932;4.278;2022-12-18T15:14:44;102143.88;;;-1.15;72.96
37298;BME280;30517;51.932;4.278;2022-12-18T15:17:26;102158.41;;;-1.04;72.97
37298;BME280;30517;51.932;4.278;2022-12-18T15:20:10;102149.25;;;-0.99;72.92
37298;BME280;30517;51.932;4.278;2022-12-18T15:22:51;101848.69;;;-2.76;72.95
37298;BME280;30517;51.932;4.278;2022-12-18T15:25:35;102167.00;;;-0.92;73.44
37298;BME280;30517;51.932;4.278;2022-12-18T15:34:10;102149.16;;;-0.87;73.10
37298;BME280;30517;51.932;4.278;2022-12-18T15:36:52;102163.22;;;-0.83;72.83
37298;BME280;30517;51.932;4.278;2022-12-18T15:39:33;102056.03;;;-1.39;72.99